Diana, Texas
Current Conditions -  °F | °C
As of 6:15 AM on Sunday 25 Jan 2015 (Local Time) from KJXI Reporting Station
Clear Clear  
Wind Chill: 39°   Ceiling: Unl
Heat Index: 42°   Visibility: 10mi
Dew Point: 35°   Wind: 5mph
Humidity: 78%   Direction: 250°WSW
Pressure: 29.92"   Gusts: NA
Location:  32.71°N, 94.75°W
Report Text: KJXI 251215Z AUTO 25004KT 10SM CLR 06/02 A2992 RMK AO2 T00550019
Loading
Personal Weather Stations






























Interactive Weather Map New forecast layout! Learn more

10-Day Weather Forecast

Advertisements
Track Severe Weather on mobile